createdAt,value
2017-08-15T00:00:56.711Z,8.40
2017-08-15T00:03:32.487Z,7.00
2017-08-15T00:06:07.233Z,7.03
2017-08-15T00:08:42.823Z,8.17
2017-08-15T00:11:17.558Z,7.97
2017-08-15T00:13:53.160Z,8.07
2017-08-15T00:16:27.962Z,8.13
2017-08-15T00:19:02.693Z,8.00
2017-08-15T00:21:37.295Z,8.50
2017-08-15T00:24:12.911Z,7.90
2017-08-15T00:26:47.606Z,8.80
2017-08-15T00:29:22.259Z,7.77
2017-08-15T00:31:57.963Z,7.50
2017-08-15T00:34:32.650Z,7.53
2017-08-15T00:37:07.152Z,9.03
2017-08-15T00:39:41.795Z,8.20
2017-08-15T00:42:16.040Z,10.40
2017-08-15T00:44:50.967Z,7.13
2017-08-15T00:47:25.735Z,7.80
2017-08-15T00:50:00.031Z,7.57
2017-08-15T00:52:35.040Z,8.73
2017-08-15T00:55:09.476Z,8.33
2017-08-15T00:57:44.547Z,8.30
2017-08-15T01:00:18.849Z,7.43
2017-08-15T01:02:53.755Z,7.10
2017-08-15T01:05:28.445Z,8.20
2017-08-15T01:08:03.724Z,7.93
2017-08-15T01:10:39.655Z,8.03
2017-08-15T01:13:14.344Z,7.60
2017-08-15T01:15:49.087Z,8.80
2017-08-15T01:18:23.678Z,8.23
2017-08-15T01:20:58.329Z,7.73
2017-08-15T01:23:33.159Z,7.87
2017-08-15T01:26:08.831Z,7.30
2017-08-15T01:28:43.438Z,7.53
2017-08-15T01:31:18.086Z,7.73
2017-08-15T01:33:52.703Z,7.97
2017-08-15T01:36:27.363Z,7.50
2017-08-15T01:39:01.955Z,9.50
2017-08-15T01:41:36.499Z,7.83
2017-08-15T01:44:11.011Z,9.10
2017-08-15T01:46:45.674Z,8.17
2017-08-15T01:49:20.347Z,8.50
2017-08-15T01:51:54.671Z,9.07
2017-08-15T01:54:29.346Z,8.20
2017-08-15T01:57:04.262Z,9.63
2017-08-15T01:59:38.959Z,9.57
2017-08-15T02:02:13.709Z,8.30
2017-08-15T02:04:48.395Z,9.40
2017-08-15T02:07:23.032Z,9.70
2017-08-15T02:09:57.656Z,9.17
2017-08-15T02:12:32.395Z,9.67
2017-08-15T02:15:07.055Z,9.30
2017-08-15T02:17:41.656Z,9.70
2017-08-15T02:20:16.360Z,8.97
2017-08-15T02:22:51.170Z,9.00
2017-08-15T02:25:25.886Z,9.03
2017-08-15T02:28:00.394Z,9.90
2017-08-15T02:30:35.075Z,9.97
2017-08-15T02:33:09.890Z,9.83
2017-08-15T02:35:44.536Z,8.43
2017-08-15T02:38:19.179Z,9.33
2017-08-15T02:40:53.867Z,8.70
2017-08-15T02:43:28.367Z,9.67
2017-08-15T02:46:03.044Z,9.00
2017-08-15T02:48:38.699Z,10.00
2017-08-15T02:51:13.322Z,8.90
2017-08-15T02:53:47.966Z,9.10
2017-08-15T02:56:22.684Z,9.67
2017-08-15T02:58:57.470Z,10.00
2017-08-15T03:01:32.768Z,9.37
2017-08-15T03:04:07.830Z,9.13
2017-08-15T03:06:42.927Z,9.50
2017-08-15T03:09:18.610Z,9.33
2017-08-15T03:11:53.277Z,8.97
2017-08-15T03:14:28.943Z,9.43
2017-08-15T03:17:03.596Z,9.23
2017-08-15T03:19:39.253Z,10.10
2017-08-15T03:22:13.867Z,9.47
2017-08-15T03:24:48.867Z,10.30
2017-08-15T03:27:23.855Z,9.93
2017-08-15T03:29:59.924Z,10.13
2017-08-15T03:32:34.607Z,9.37
2017-08-15T03:35:09.404Z,8.80
2017-08-15T03:37:44.269Z,10.20
2017-08-15T03:40:19.596Z,9.67
2017-08-15T03:42:54.300Z,9.37
2017-08-15T03:45:28.971Z,9.40
2017-08-15T03:48:04.635Z,10.07
2017-08-15T03:50:39.375Z,9.90
2017-08-15T03:53:14.138Z,10.50
2017-08-15T03:55:49.939Z,10.70
2017-08-15T03:58:24.667Z,10.60
2017-08-15T04:00:59.292Z,9.77
2017-08-15T04:03:34.010Z,11.57
2017-08-15T04:06:08.871Z,10.27
2017-08-15T04:08:43.396Z,10.30
2017-08-15T04:11:17.979Z,9.00
2017-08-15T04:13:52.388Z,9.90
2017-08-15T04:16:28.183Z,9.77
2017-08-15T04:19:02.818Z,8.50
2017-08-15T04:21:37.549Z,9.40
2017-08-15T04:24:13.055Z,10.43
2017-08-15T04:26:48.748Z,9.30
2017-08-15T04:29:23.474Z,9.47
2017-08-15T04:31:58.084Z,8.43
2017-08-15T04:34:34.030Z,8.50
2017-08-15T04:37:08.478Z,9.40
2017-08-15T04:39:43.171Z,9.40
2017-08-15T04:42:17.747Z,8.70
2017-08-15T04:44:52.602Z,8.70
2017-08-15T04:47:27.099Z,7.87
2017-08-15T04:50:01.766Z,7.60
2017-08-15T04:52:36.494Z,7.30
2017-08-15T04:55:10.948Z,8.20
2017-08-15T04:57:45.515Z,7.30
2017-08-15T05:00:21.219Z,8.73
2017-08-15T05:02:57.075Z,7.97
2017-08-15T05:05:31.684Z,8.30
2017-08-15T05:08:07.455Z,8.20
2017-08-15T05:10:42.116Z,8.57
2017-08-15T05:13:16.722Z,7.67
2017-08-15T05:15:51.347Z,8.53
2017-08-15T05:18:26.099Z,8.60
2017-08-15T05:21:00.708Z,7.20
2017-08-15T05:23:37.366Z,7.77
2017-08-15T05:26:11.987Z,7.40
2017-08-15T05:28:47.721Z,7.43
2017-08-15T05:31:22.371Z,7.93
2017-08-15T05:33:57.002Z,7.57
2017-08-15T05:36:31.619Z,7.13
2017-08-15T05:39:06.006Z,7.40
2017-08-15T05:41:40.984Z,7.47
2017-08-15T05:44:16.723Z,6.60
2017-08-15T05:46:51.362Z,6.63
2017-08-15T05:49:25.994Z,7.00
2017-08-15T05:52:01.614Z,8.60
2017-08-15T05:54:36.396Z,7.00
2017-08-15T05:57:11.081Z,7.00
2017-08-15T05:59:45.649Z,6.90
2017-08-15T06:02:20.207Z,7.37
2017-08-15T06:04:54.868Z,7.57
2017-08-15T06:07:29.615Z,6.73
2017-08-15T06:10:04.367Z,6.97
2017-08-15T06:12:39.044Z,6.40
2017-08-15T06:15:13.788Z,6.50
2017-08-15T06:17:48.398Z,6.00
2017-08-15T06:20:23.090Z,6.10
2017-08-15T06:22:57.805Z,5.53
2017-08-15T06:25:33.555Z,6.20
2017-08-15T06:28:08.243Z,5.57
2017-08-15T06:30:42.930Z,5.87
2017-08-15T06:33:17.698Z,5.87
2017-08-15T06:35:52.361Z,5.43
2017-08-15T06:38:27.462Z,5.50
2017-08-15T06:41:02.806Z,4.67
2017-08-15T06:43:37.321Z,5.10
2017-08-15T06:46:12.095Z,4.40
2017-08-15T06:48:46.705Z,5.50
2017-08-15T06:51:22.471Z,5.10
2017-08-15T06:53:57.184Z,4.60
2017-08-15T06:56:31.764Z,4.40
2017-08-15T06:59:06.568Z,4.97
2017-08-15T07:01:41.119Z,4.40
2017-08-15T07:04:15.871Z,4.13
2017-08-15T07:06:50.528Z,4.40
2017-08-15T07:09:25.122Z,4.20
2017-08-15T07:12:00.682Z,4.67
2017-08-15T07:14:35.326Z,4.70
2017-08-15T07:17:10.075Z,3.60
2017-08-15T07:19:44.715Z,4.17
2017-08-15T07:22:19.419Z,4.20
2017-08-15T07:24:54.154Z,3.80
2017-08-15T07:27:29.634Z,4.03
2017-08-15T07:30:04.511Z,3.80
2017-08-15T07:32:39.148Z,4.33
2017-08-15T07:35:13.567Z,4.30
2017-08-15T07:37:48.265Z,3.63
2017-08-15T07:40:23.076Z,4.13
2017-08-15T07:42:57.751Z,4.10
2017-08-15T07:45:32.555Z,4.57
2017-08-15T07:48:07.191Z,4.70
2017-08-15T07:50:41.978Z,4.20
2017-08-15T07:53:16.783Z,3.90
2017-08-15T07:55:51.490Z,4.10
2017-08-15T07:58:26.224Z,4.13
2017-08-15T08:01:01.755Z,4.00
2017-08-15T08:03:36.171Z,3.83
2017-08-15T08:06:10.912Z,3.63
2017-08-15T08:08:45.627Z,3.70
2017-08-15T08:11:20.271Z,4.03
2017-08-15T08:13:56.008Z,3.70
2017-08-15T08:16:30.686Z,4.47
2017-08-15T08:19:05.316Z,4.37
2017-08-15T08:21:39.726Z,3.60
2017-08-15T08:24:14.380Z,3.97
2017-08-15T08:26:48.983Z,3.90
2017-08-15T08:29:23.711Z,4.20
2017-08-15T08:31:58.419Z,4.37
2017-08-15T08:34:33.053Z,3.77
2017-08-15T08:37:08.776Z,3.70
2017-08-15T08:39:43.400Z,3.93
2017-08-15T08:42:19.159Z,3.40
2017-08-15T08:44:54.168Z,3.83
2017-08-15T08:47:28.614Z,4.17
2017-08-15T08:50:03.263Z,3.70
2017-08-15T08:52:38.047Z,4.63
2017-08-15T08:55:12.708Z,3.20
2017-08-15T08:57:47.455Z,4.50
2017-08-15T09:00:21.984Z,4.10
2017-08-15T09:02:56.913Z,4.40
2017-08-15T09:05:32.424Z,3.53
2017-08-15T09:08:08.178Z,3.57
2017-08-15T09:10:42.751Z,3.80
2017-08-15T09:13:17.730Z,4.00
2017-08-15T09:15:52.308Z,3.73
2017-08-15T09:18:26.935Z,4.27
2017-08-15T09:21:01.031Z,3.90
2017-08-15T09:23:35.959Z,5.30
2017-08-15T09:26:11.814Z,4.10
2017-08-15T09:28:51.926Z,4.33
2017-08-15T09:31:27.027Z,3.90
2017-08-15T09:34:01.544Z,6.60
2017-08-15T09:36:36.256Z,4.00
2017-08-15T09:39:10.767Z,4.17
2017-08-15T09:41:45.654Z,3.80
2017-08-15T09:44:21.212Z,4.17
2017-08-15T09:46:55.911Z,3.70
2017-08-15T09:49:30.730Z,4.43
2017-08-15T09:52:05.443Z,4.70
2017-08-15T09:54:39.909Z,4.30
2017-08-15T09:57:15.736Z,4.67
2017-08-15T09:59:50.571Z,4.47
2017-08-15T10:02:25.288Z,4.60
2017-08-15T10:04:59.904Z,4.20
2017-08-15T10:07:34.623Z,4.60
2017-08-15T10:10:09.611Z,4.37
2017-08-15T10:12:43.935Z,4.50
2017-08-15T10:15:18.686Z,4.30
2017-08-15T10:17:53.455Z,4.50
2017-08-15T10:20:28.011Z,5.20
2017-08-15T10:23:02.658Z,3.67
2017-08-15T10:25:37.572Z,4.20
2017-08-15T10:28:11.994Z,4.27
2017-08-15T10:30:46.772Z,4.60
2017-08-15T10:33:21.497Z,4.70
2017-08-15T10:35:56.228Z,3.83
2017-08-15T10:38:30.959Z,3.80
2017-08-15T10:41:05.676Z,4.37
2017-08-15T10:43:42.290Z,4.30
2017-08-15T10:46:16.930Z,3.93
2017-08-15T10:48:51.832Z,4.70
2017-08-15T10:51:26.438Z,4.70
2017-08-15T10:54:01.167Z,4.40
2017-08-15T10:56:35.638Z,4.63
2017-08-15T10:59:10.331Z,3.90
2017-08-15T11:01:44.863Z,4.50
2017-08-15T11:04:19.727Z,3.60
2017-08-15T11:06:54.315Z,3.93
2017-08-15T11:09:29.047Z,4.50
2017-08-15T11:12:03.780Z,4.67
2017-08-15T11:14:38.534Z,4.20
2017-08-15T11:17:13.010Z,4.27
2017-08-15T11:19:47.854Z,4.77
2017-08-15T11:22:22.590Z,4.73
2017-08-15T11:24:57.332Z,4.47
2017-08-15T11:27:31.914Z,4.57
2017-08-15T11:30:06.635Z,4.33
2017-08-15T11:32:41.186Z,4.50
2017-08-15T11:35:15.902Z,3.87
2017-08-15T11:37:50.506Z,4.30
2017-08-15T11:40:25.368Z,4.73
2017-08-15T11:43:00.831Z,4.47
2017-08-15T11:45:36.638Z,3.77
2017-08-15T11:48:12.246Z,4.20
2017-08-15T11:50:46.943Z,4.50
2017-08-15T11:53:22.702Z,4.57
2017-08-15T11:55:57.409Z,4.37
2017-08-15T11:58:31.971Z,4.10
2017-08-15T12:01:07.055Z,5.30
2017-08-15T12:03:42.236Z,4.47
2017-08-15T12:06:16.983Z,4.80
2017-08-15T12:08:52.736Z,4.40
2017-08-15T12:11:27.367Z,4.83
2017-08-15T12:14:03.191Z,4.80
2017-08-15T12:16:37.850Z,5.03
2017-08-15T12:19:13.200Z,4.97
2017-08-15T12:21:48.130Z,4.33
2017-08-15T12:24:22.855Z,5.03
2017-08-15T12:26:57.392Z,4.60
2017-08-15T12:29:32.254Z,4.87
2017-08-15T12:32:06.704Z,4.20
2017-08-15T12:34:41.240Z,20.83
2017-08-15T12:37:16.034Z,4.77
2017-08-15T12:39:50.790Z,5.20
2017-08-15T12:42:25.494Z,5.93
2017-08-15T12:45:00.231Z,5.13
2017-08-15T12:47:34.951Z,4.77
2017-08-15T12:50:09.792Z,5.30
2017-08-15T12:52:45.562Z,4.90
2017-08-15T12:55:20.171Z,4.50
2017-08-15T12:57:55.823Z,4.17
2017-08-15T13:00:30.574Z,5.00
2017-08-15T13:03:05.319Z,4.93
2017-08-15T13:05:40.111Z,5.03
2017-08-15T13:08:14.915Z,4.57
2017-08-15T13:10:49.762Z,4.63
2017-08-15T13:13:24.412Z,4.13
2017-08-15T13:15:59.124Z,5.80
2017-08-15T13:18:34.799Z,4.93
2017-08-15T13:21:09.390Z,4.63
2017-08-15T13:23:53.639Z,5.03
2017-08-15T13:26:28.946Z,4.10
2017-08-15T13:29:03.834Z,4.30
2017-08-15T13:31:38.571Z,4.33
2017-08-15T13:34:13.240Z,4.63
2017-08-15T13:36:47.976Z,4.33
2017-08-15T13:39:22.611Z,4.17
2017-08-15T13:41:57.420Z,4.27
2017-08-15T13:44:32.023Z,4.67
2017-08-15T13:47:07.684Z,4.67
2017-08-15T13:49:43.319Z,4.63
2017-08-15T13:52:17.971Z,3.80
2017-08-15T13:54:52.719Z,3.57
2017-08-15T13:57:27.539Z,4.50
2017-08-15T14:00:04.150Z,4.00
2017-08-15T14:02:39.616Z,3.80
2017-08-15T14:05:14.256Z,4.00
2017-08-15T14:07:49.058Z,3.80
2017-08-15T14:10:23.881Z,4.13
2017-08-15T14:12:58.247Z,3.80
2017-08-15T14:15:33.048Z,5.00
2017-08-15T14:18:07.670Z,3.90
2017-08-15T14:20:42.443Z,3.73
2017-08-15T14:23:17.264Z,3.97
2017-08-15T14:25:51.739Z,3.30
2017-08-15T14:28:26.392Z,3.33
2017-08-15T14:31:01.120Z,3.70
2017-08-15T14:33:35.851Z,3.73
2017-08-15T14:36:10.127Z,3.40
2017-08-15T14:38:45.272Z,3.10
2017-08-15T14:41:20.050Z,2.87
2017-08-15T14:43:55.691Z,3.57
2017-08-15T14:46:31.412Z,4.73
2017-08-15T14:49:06.275Z,3.07
2017-08-15T14:51:41.875Z,3.70
2017-08-15T14:54:16.416Z,3.20
2017-08-15T14:56:51.419Z,4.73
2017-08-15T14:59:26.813Z,3.27
2017-08-15T15:02:01.695Z,3.43
2017-08-15T15:04:36.172Z,2.97
2017-08-15T15:07:11.822Z,3.27
2017-08-15T15:09:46.634Z,3.60
2017-08-15T15:12:21.140Z,3.70
2017-08-15T15:14:55.920Z,3.90
2017-08-15T15:17:30.640Z,3.73
2017-08-15T15:20:05.490Z,3.50
2017-08-15T15:22:40.123Z,3.07
2017-08-15T15:25:14.654Z,14.10
2017-08-15T15:27:49.188Z,15.13
2017-08-15T15:30:23.922Z,5.23
2017-08-15T15:32:58.652Z,4.03
2017-08-15T15:35:33.215Z,3.57
2017-08-15T15:38:07.868Z,7.13
2017-08-15T15:40:42.657Z,4.40
2017-08-15T15:43:17.342Z,3.93
2017-08-15T15:45:52.139Z,5.07
2017-08-15T15:48:26.698Z,5.67
2017-08-15T15:51:02.413Z,4.97
2017-08-15T15:53:38.116Z,4.20
2017-08-15T15:56:13.912Z,3.90
2017-08-15T15:58:48.664Z,4.00
2017-08-15T16:01:23.473Z,5.20
2017-08-15T16:03:59.156Z,3.83
2017-08-15T16:06:33.785Z,3.77
2017-08-15T16:09:08.428Z,4.30
2017-08-15T16:11:43.168Z,5.53
2017-08-15T16:14:17.831Z,3.70
2017-08-15T16:16:52.626Z,3.93
2017-08-15T16:19:27.182Z,4.80
2017-08-15T16:22:01.700Z,4.40
2017-08-15T16:24:36.431Z,5.40
2017-08-15T16:27:11.035Z,5.27
2017-08-15T16:29:45.696Z,4.40
2017-08-15T16:32:21.387Z,4.77
2017-08-15T16:34:56.131Z,4.90
2017-08-15T16:37:30.871Z,4.57
2017-08-15T16:40:05.392Z,4.70
2017-08-15T16:42:39.944Z,7.50
2017-08-15T16:45:14.587Z,5.50
2017-08-15T16:47:49.324Z,6.23
2017-08-15T16:50:24.091Z,5.67
2017-08-15T16:52:58.704Z,4.07
2017-08-15T16:55:33.407Z,4.77
2017-08-15T16:58:07.993Z,4.43
2017-08-15T17:00:42.648Z,4.27
2017-08-15T17:03:17.523Z,4.63
2017-08-15T17:05:51.822Z,5.03
2017-08-15T17:08:26.619Z,4.33
2017-08-15T17:11:01.827Z,4.50
2017-08-15T17:13:36.798Z,5.87
2017-08-15T17:16:12.858Z,4.70
2017-08-15T17:18:47.399Z,4.40
2017-08-15T17:21:22.020Z,4.83
2017-08-15T17:23:56.601Z,5.30
2017-08-15T17:26:31.228Z,4.60
2017-08-15T17:29:05.879Z,4.93
2017-08-15T17:31:40.595Z,4.00
2017-08-15T17:34:15.355Z,4.00
2017-08-15T17:36:49.949Z,5.40
2017-08-15T17:39:25.466Z,4.10
2017-08-15T17:42:00.013Z,8.50
2017-08-15T17:44:34.834Z,5.33
2017-08-15T17:47:10.539Z,7.60
2017-08-15T17:49:45.339Z,4.77
2017-08-15T17:52:19.984Z,6.30
2017-08-15T17:54:54.688Z,6.00
2017-08-15T17:57:29.392Z,5.90
2017-08-15T18:00:03.604Z,3.50
2017-08-15T18:02:38.519Z,6.73
2017-08-15T18:05:13.199Z,5.00
2017-08-15T18:07:48.019Z,5.03
2017-08-15T18:10:22.556Z,4.27
2017-08-15T18:12:57.270Z,4.50
2017-08-15T18:15:32.017Z,5.57
2017-08-15T18:18:06.754Z,3.50
2017-08-15T18:20:41.939Z,5.27
2017-08-15T18:23:17.248Z,4.57
2017-08-15T18:25:52.054Z,5.13
2017-08-15T18:28:26.774Z,4.60
2017-08-15T18:31:01.558Z,2.97
2017-08-15T18:33:36.279Z,2.00
2017-08-15T18:36:10.996Z,3.33
2017-08-15T18:38:46.816Z,1.87
2017-08-15T18:41:22.367Z,2.57
2017-08-15T18:43:57.088Z,1.67
2017-08-15T18:46:32.751Z,2.33
2017-08-15T18:49:07.396Z,2.90
2017-08-15T18:51:42.268Z,4.83
2017-08-15T18:54:16.664Z,2.03
2017-08-15T18:56:52.386Z,1.80
2017-08-15T18:59:27.115Z,1.93
2017-08-15T19:02:01.628Z,3.93
2017-08-15T19:04:36.370Z,2.40
2017-08-15T19:07:10.975Z,2.20
2017-08-15T19:09:45.624Z,3.37
2017-08-15T19:12:21.267Z,1.93
2017-08-15T19:14:55.899Z,2.40
2017-08-15T19:17:31.932Z,2.63
2017-08-15T19:20:07.138Z,4.30
2017-08-15T19:22:41.799Z,1.77
2017-08-15T19:25:16.579Z,2.73
2017-08-15T19:27:52.217Z,2.10
2017-08-15T19:30:27.087Z,1.97
2017-08-15T19:33:01.292Z,2.03
2017-08-15T19:35:36.075Z,3.13
2017-08-15T19:38:10.831Z,2.10
2017-08-15T19:40:45.577Z,3.57
2017-08-15T19:43:20.084Z,2.50
2017-08-15T19:45:55.266Z,1.73
2017-08-15T19:48:30.434Z,2.33
2017-08-15T19:51:06.183Z,1.50
2017-08-15T19:53:40.778Z,5.77
2017-08-15T19:56:15.546Z,1.90
2017-08-15T19:58:50.133Z,2.20
2017-08-15T20:01:24.988Z,2.07
2017-08-15T20:03:59.199Z,2.50
2017-08-15T20:06:34.007Z,2.07
2017-08-15T20:09:08.743Z,5.33
2017-08-15T20:11:43.516Z,1.87
2017-08-15T20:14:18.099Z,2.27
2017-08-15T20:16:52.823Z,2.40
2017-08-15T20:19:27.454Z,2.07
2017-08-15T20:22:01.840Z,2.47
2017-08-15T20:24:37.615Z,1.87
2017-08-15T20:27:13.410Z,2.40
2017-08-15T20:29:48.123Z,4.23
2017-08-15T20:32:22.871Z,5.03
2017-08-15T20:34:57.232Z,2.13
2017-08-15T20:37:32.135Z,2.80
2017-08-15T20:40:06.759Z,2.67
2017-08-15T20:42:41.460Z,2.23
2017-08-15T20:45:16.096Z,2.20
2017-08-15T20:47:50.744Z,4.00
2017-08-15T20:50:25.442Z,2.53
2017-08-15T20:53:00.177Z,5.77
2017-08-15T20:55:34.860Z,2.63
2017-08-15T20:58:10.546Z,2.30
2017-08-15T21:00:45.978Z,2.47
2017-08-15T21:03:21.033Z,2.53
2017-08-15T21:05:56.766Z,2.60
2017-08-15T21:08:31.451Z,2.63
2017-08-15T21:11:07.091Z,6.77
2017-08-15T21:13:42.194Z,2.60
2017-08-15T21:16:17.535Z,3.10
2017-08-15T21:18:52.266Z,2.70
2017-08-15T21:21:27.556Z,3.10
2017-08-15T21:24:03.688Z,3.57
2017-08-15T21:26:38.314Z,3.53
2017-08-15T21:29:13.067Z,4.17
2017-08-15T21:31:47.728Z,2.87
2017-08-15T21:34:22.696Z,4.23
2017-08-15T21:36:57.167Z,3.77
2017-08-15T21:39:31.786Z,3.50
2017-08-15T21:42:06.471Z,3.20
2017-08-15T21:44:42.238Z,4.57
2017-08-15T21:47:16.964Z,4.20
2017-08-15T21:49:51.728Z,3.40
2017-08-15T21:52:26.435Z,5.00
2017-08-15T21:55:01.158Z,4.40
2017-08-15T21:57:35.786Z,3.87
2017-08-15T22:00:10.444Z,7.23
2017-08-15T22:02:44.960Z,3.60
2017-08-15T22:05:19.660Z,4.50
2017-08-15T22:07:54.284Z,4.37
2017-08-15T22:10:30.031Z,6.40
2017-08-15T22:13:04.667Z,3.87
2017-08-15T22:15:39.334Z,4.70
2017-08-15T22:18:13.846Z,3.50
2017-08-15T22:20:48.609Z,3.80
2017-08-15T22:23:23.216Z,5.40
2017-08-15T22:25:58.934Z,4.37
2017-08-15T22:28:33.563Z,3.93
2017-08-15T22:31:08.182Z,3.33
2017-08-15T22:33:42.891Z,3.20
2017-08-15T22:36:17.450Z,3.73
2017-08-15T22:38:52.201Z,2.80
2017-08-15T22:41:27.860Z,3.07
2017-08-15T22:44:02.450Z,3.93
2017-08-15T22:46:37.094Z,3.90
2017-08-15T22:49:11.658Z,4.40
2017-08-15T22:51:46.468Z,4.07
2017-08-15T22:54:21.536Z,4.93
2017-08-15T22:56:57.895Z,4.33
2017-08-15T22:59:32.554Z,3.93
2017-08-15T23:02:07.319Z,4.00
2017-08-15T23:04:42.011Z,4.83
2017-08-15T23:07:16.754Z,4.57
2017-08-15T23:09:51.468Z,4.00
2017-08-15T23:12:27.367Z,5.50
2017-08-15T23:15:01.746Z,4.27
2017-08-15T23:17:37.375Z,4.83
2017-08-15T23:20:13.039Z,4.43
2017-08-15T23:22:47.646Z,4.47
2017-08-15T23:25:22.340Z,4.80
2017-08-15T23:27:56.859Z,4.83
2017-08-15T23:30:32.460Z,5.00
2017-08-15T23:33:07.163Z,5.20
2017-08-15T23:35:41.799Z,4.60
2017-08-15T23:38:16.502Z,6.10
2017-08-15T23:40:51.207Z,5.17
2017-08-15T23:43:25.878Z,5.10
2017-08-15T23:46:00.641Z,5.10
2017-08-15T23:48:36.400Z,5.00
2017-08-15T23:51:11.127Z,5.13
2017-08-15T23:53:45.728Z,5.67
2017-08-15T23:56:20.478Z,4.23
2017-08-15T23:58:55.480Z,5.17
